KBFD/BFD METAR and TAF weather

Enter ICAO airport designator
Station Type Date Time Source
KBFD METAR 2022/01/18 07:04 UTC NOAA

KBFD 180704Z AUTO 28009G19KT 1 3/4SM -SN OVC016 M04/M08 A2965 RMK AO2 P0000 T10391078


Station Type Date Time Source
KBFD Decoded METAR 2022/01/18 07:04 UTC NOAA

BRADFORD REGIONAL AIRPORT, PA, United States (KBFD) 41-48N 078-38W 647M
Jan 18, 2022 - 02:04 AM EST / 2022.01.18 0704 UTC
Wind: from the W (280 degrees) at 10 MPH (9 KT) gusting to 22 MPH (19 KT):0
Visibility: 1 3/4 mile(s):0
Sky conditions: overcast
Weather: light snow
Precipitation last hour: A trace
Temperature: 25.0 F (-3.9 C)
Windchill: 15 F (-9 C):1
Dew Point: 18.0 F (-7.8 C)
Relative Humidity: 74%
Pressure (altimeter): 29.65 in. Hg (1004 hPa)
ob: KBFD 180704Z AUTO 28009G19KT 1 3/4SM -SN OVC016 M04/M08 A2965 RMK AO2 P0000 T10391078
cycle: 7

Station Type Date Time Source
KBFD TAF 2022/01/18 06:54 UTC NOAA

TAF KBFD 180553Z 1806/1906 30014G25KT 5SM -SHSN OVC015
TEMPO 1809/1813 3SM -SN OVC008
FM181900 28010G17KT P6SM OVC020
FM182300 19008KT P6SM OVC015
FM190300 18008KT P6SM OVC009 WS020/23045KT

Example: see airport list